Time;durP1;ratioP1;P1;durP2;ratioP2;P2;SDS_P1;SDS_P2;PMS_P1;PMS_P2;Temp;Humidity;BMP_temperature;BMP_pressure;BME280_temperature;BME280_humidity;BME280_pressure;Samples;Min_cycle;Max_cycle;Signal;HPM_P1;HPM_P2
2022/09/20 00:02:17;;;;;;;0.63;0.35;;;;;;;19.68;34.49;100744.69;4921788;29;20051;-81
2022/09/20 00:05:03;;;;;;;2.97;0.25;;;;;;;18.66;37.10;100772.31;4916445;29;20069;-80
2022/09/20 00:07:48;;;;;;;1.83;0.30;;;;;;;18.56;35.69;100761.13;4946463;29;20059;-80
2022/09/20 00:10:35;;;;;;;;;;;;;;;18.47;36.11;100753.09;4906186;29;20705;-81
2022/09/20 00:13:20;;;;;;;3.15;0.70;;;;;;;18.58;36.87;100762.38;4924045;29;19915;-80
2022/09/20 00:16:07;;;;;;;1.45;0.40;;;;;;;18.50;35.78;100770.81;4923266;29;20047;-81
2022/09/20 00:18:53;;;;;;;3.40;0.20;;;;;;;18.38;36.23;100771.81;4922455;29;20059;-82
2022/09/20 00:21:38;;;;;;;3.47;0.70;;;;;;;18.28;36.52;100772.41;4924603;29;20526;-80
2022/09/20 00:24:23;;;;;;;;;;;;;;;18.25;37.59;100782.19;4923656;29;20055;-80
2022/09/20 00:27:08;;;;;;;2.70;0.55;;;;;;;18.31;37.20;100777.97;4923254;29;19915;-80
2022/09/20 00:29:52;;;;;;;2.10;1.08;;;;;;;18.04;38.09;100764.47;4953043;28;20047;-81
2022/09/20 00:32:38;;;;;;;8.18;0.68;;;;;;;18.10;37.54;100768.53;4950739;28;20055;-80
2022/09/20 00:35:23;;;;;;;3.17;0.70;;;;;;;17.80;38.65;100771.09;4925959;29;20058;-80
2022/09/20 00:38:08;;;;;;;6.47;1.33;;;;;;;17.62;39.02;100775.44;4923551;29;20693;-80
2022/09/20 00:40:52;;;;;;;0.65;0.43;;;;;;;17.63;39.53;100764.06;4918386;29;20047;-81
2022/09/20 00:43:42;;;;;;;0.55;0.40;;;;;;;17.44;39.65;100762.06;4919652;29;20428;-80
2022/09/20 00:46:35;;;;;;;2.42;0.60;;;;;;;17.43;40.21;100759.66;4923581;29;20412;-79
2022/09/20 00:49:26;;;;;;;5.28;0.70;;;;;;;17.56;39.18;100760.34;4922343;29;20059;-81
2022/09/20 00:52:11;;;;;;;5.88;0.85;;;;;;;17.36;39.75;100762.28;4926867;29;20052;-81
2022/09/20 00:54:57;;;;;;;1.50;0.60;;;;;;;17.41;40.00;100753.75;4922423;29;20534;-80
2022/09/20 00:57:44;;;;;;;13.43;1.00;;;;;;;17.15;40.45;100761.81;4923046;29;20051;-80
2022/09/20 01:00:29;;;;;;;3.92;0.60;;;;;;;17.14;40.10;100758.25;4922552;29;20060;-80
2022/09/20 01:03:16;;;;;;;;;;;;;;;16.84;42.72;100757.16;4924718;29;20055;-81
2022/09/20 01:06:05;;;;;;;3.17;0.90;;;;;;;16.83;41.86;100752.81;4922917;29;19915;-80
2022/09/20 01:08:53;;;;;;;6.28;0.70;;;;;;;16.68;42.25;100754.41;4922263;29;20444;-81
2022/09/20 01:11:39;;;;;;;1.58;0.40;;;;;;;16.90;41.04;100755.72;4909642;29;20051;-80
2022/09/20 01:14:25;;;;;;;2.10;0.57;;;;;;;16.63;41.25;100763.72;4922688;29;20098;-80
2022/09/20 01:17:11;;;;;;;1.58;0.70;;;;;;;16.78;42.07;100773.09;4921250;29;20065;-80
2022/09/20 01:20:14;;;;;;;4.00;0.65;;;;;;;16.79;40.83;100771.97;4922808;29;20055;-80
2022/09/20 01:23:19;;;;;;;0.55;0.45;;;;;;;16.85;40.36;100775.22;4922435;29;20055;-80
2022/09/20 01:26:13;;;;;;;1.13;0.30;;;;;;;16.62;40.97;100772.31;4922829;29;20051;-80
2022/09/20 01:29:04;;;;;;;2.78;0.70;;;;;;;16.95;40.90;100774.69;4921478;29;20523;-81
2022/09/20 01:31:53;;;;;;;2.53;0.70;;;;;;;16.98;40.83;100773.97;4924112;29;20427;-80
2022/09/20 01:34:46;;;;;;;6.32;0.40;;;;;;;16.92;40.14;100764.41;4922381;29;20051;-80
2022/09/20 01:37:48;;;;;;;1.00;0.55;;;;;;;16.92;40.87;100761.66;4920650;29;20078;-80
2022/09/20 01:40:45;;;;;;;6.82;0.52;;;;;;;16.89;40.81;100779.66;4921589;29;20061;-80
2022/09/20 01:43:49;;;;;;;0.68;0.40;;;;;;;16.97;41.46;100784.16;4919562;29;20058;-80
2022/09/20 01:46:36;;;;;;;4.88;0.60;;;;;;;16.67;41.88;100785.78;4921850;29;20519;-80
2022/09/20 01:49:26;;;;;;;2.40;0.50;;;;;;;16.65;40.76;100777.91;4921832;29;20055;-80
2022/09/20 01:52:33;;;;;;;1.50;0.45;;;;;;;16.76;40.23;100785.63;4921846;29;20061;-80
2022/09/20 01:55:27;;;;;;;1.98;0.63;;;;;;;16.89;41.30;100785.16;4922460;29;20055;-80
2022/09/20 01:58:48;;;;;;;0.47;0.30;;;;;;;16.94;41.15;100779.38;4908413;29;20515;-80
2022/09/20 02:01:53;;;;;;;1.23;0.40;;;;;;;16.91;41.15;100779.31;4912173;29;20091;-80
2022/09/20 02:05:30;;;;;;;1.13;0.40;;;;;;;16.89;40.63;100787.09;4921087;29;20055;-80
2022/09/20 02:08:18;;;;;;;3.53;0.40;;;;;;;16.96;41.21;100782.59;4919890;29;20435;-81
2022/09/20 02:11:15;;;;;;;3.25;0.52;;;;;;;16.81;41.32;100788.84;4921209;29;20051;-80
2022/09/20 02:14:41;;;;;;;23.58;1.33;;;;;;;16.55;42.88;100791.34;4919087;29;20051;-80
2022/09/20 02:17:40;;;;;;;11.68;0.70;;;;;;;16.71;41.25;100789.41;4921318;29;20125;-81
2022/09/20 02:20:43;;;;;;;2.75;0.40;;;;;;;16.76;42.54;100794.63;4949179;28;20408;-80
2022/09/20 02:23:50;;;;;;;1.52;0.68;;;;;;;16.59;43.39;100795.00;4920813;29;20055;-80
2022/09/20 02:26:49;;;;;;;0.47;0.30;;;;;;;16.24;45.47;100790.16;4920379;29;20051;-80
2022/09/20 02:30:00;;;;;;;3.20;0.63;;;;;;;16.26;46.38;100793.31;4921512;29;20520;-80
2022/09/20 02:32:53;;;;;;;0.82;0.50;;;;;;;16.51;43.30;100793.16;4920980;29;20419;-79
2022/09/20 02:35:59;;;;;;;2.72;0.60;;;;;;;16.41;45.54;100785.44;4919412;29;20055;-81
2022/09/20 02:38:58;;;;;;;3.55;0.68;;;;;;;16.29;45.09;100785.53;4948057;28;20051;-80
2022/09/20 02:42:06;;;;;;;0.85;0.57;;;;;;;16.22;45.05;100780.66;4920663;29;20059;-80
2022/09/20 02:45:12;;;;;;;2.13;0.60;;;;;;;16.25;46.05;100775.25;4920864;29;20125;-80
2022/09/20 02:48:02;;;;;;;5.85;1.08;;;;;;;16.27;45.43;100777.66;4948804;28;20055;-80
2022/09/20 02:51:38;;;;;;;4.65;1.10;;;;;;;16.36;45.40;100774.72;4921207;29;20051;-80
2022/09/20 02:54:25;;;;;;;10.20;1.80;;;;;;;16.38;45.62;100777.94;4918342;29;20043;-80
2022/09/20 02:57:35;;;;;;;4.55;1.02;;;;;;;16.51;45.22;100776.69;4950098;28;20059;-80
2022/09/20 03:00:27;;;;;;;4.53;0.80;;;;;;;16.64;45.11;100778.25;4934338;29;20447;-80
2022/09/20 03:03:29;;;;;;;6.57;0.90;;;;;;;16.47;45.86;100773.06;4918288;29;20059;-80
2022/09/20 03:06:26;;;;;;;3.00;0.20;;;;;;;16.44;46.78;100779.28;4920204;29;20052;-81
2022/09/20 03:09:28;;;;;;;1.95;0.77;;;;;;;16.63;46.49;100773.91;4931683;29;20055;-80
2022/09/20 03:12:25;;;;;;;2.13;0.40;;;;;;;16.42;47.00;100767.84;4919968;29;20055;-80
2022/09/20 03:15:39;;;;;;;1.23;0.50;;;;;;;16.44;47.45;100762.81;4922839;29;20059;-80
2022/09/20 03:18:58;;;;;;;1.63;0.52;;;;;;;16.45;47.58;100773.44;4923249;29;20055;-81
2022/09/20 03:22:14;;;;;;;10.98;0.50;;;;;;;16.52;47.79;100770.06;4923866;29;20055;-80
2022/09/20 03:25:17;;;;;;;1.60;0.40;;;;;;;16.58;47.70;100774.97;4934089;29;20072;-80
2022/09/20 03:28:02;;;;;;;1.67;0.70;;;;;;;16.49;47.76;100781.75;4923905;29;20535;-80
2022/09/20 03:30:59;;;;;;;2.15;0.47;;;;;;;16.54;47.38;100776.81;4924129;29;20439;-80
2022/09/20 03:34:11;;;;;;;2.72;0.50;;;;;;;16.49;47.45;100788.03;4923274;29;20052;-80
2022/09/20 03:37:15;;;;;;;3.97;0.40;;;;;;;16.51;47.43;100782.97;4939499;29;20551;-80
2022/09/20 03:40:32;;;;;;;2.33;0.50;;;;;;;16.66;47.13;100784.16;4924457;29;20051;-80
2022/09/20 03:43:41;;;;;;;7.50;0.70;;;;;;;16.61;46.97;100790.72;4923931;29;20059;-80
2022/09/20 03:46:28;;;;;;;7.00;0.65;;;;;;;16.63;47.30;100787.63;4923231;29;20415;-80
2022/09/20 03:49:42;;;;;;;2.22;0.50;;;;;;;16.60;47.20;100788.34;4924091;29;20050;-80
2022/09/20 03:52:34;;;;;;;1.60;0.55;;;;;;;16.34;47.93;100779.78;4923270;29;20035;-80
2022/09/20 03:55:44;;;;;;;2.83;1.08;;;;;;;16.36;47.77;100788.47;4922001;29;20559;-80
2022/09/20 03:58:41;;;;;;;2.65;0.30;;;;;;;16.29;48.06;100783.59;4923123;29;20051;-80
2022/09/20 04:01:53;;;;;;;2.63;0.40;;;;;;;16.45;47.89;100783.63;4916388;29;20047;-81
2022/09/20 04:04:48;;;;;;;3.83;0.52;;;;;;;16.46;47.63;100790.69;4922446;29;20055;-80
2022/09/20 04:08:12;;;;;;;2.60;0.50;;;;;;;16.53;48.10;100788.13;4922034;29;20055;-80
2022/09/20 04:11:16;;;;;;;3.85;0.30;;;;;;;16.47;47.76;100779.34;4947998;28;20427;-80
2022/09/20 04:14:18;;;;;;;2.75;0.40;;;;;;;16.35;49.35;100787.69;4917169;29;20063;-80
2022/09/20 04:17:21;;;;;;;2.30;0.40;;;;;;;16.31;49.79;100794.19;4935958;29;20051;-80
2022/09/20 04:20:19;;;;;;;10.35;0.93;;;;;;;16.10;50.81;100797.19;4920379;29;20051;-82
2022/09/20 04:23:24;;;;;;;2.50;0.40;;;;;;;15.90;50.99;100796.22;4931057;29;20337;-80
2022/09/20 04:26:09;;;;;;;3.53;0.40;;;;;;;15.99;51.02;100799.63;4949913;29;20058;-81
2022/09/20 04:28:54;;;;;;;;;;;;;;;15.54;52.34;100799.09;4940224;29;20050;-80
2022/09/20 04:31:49;;;;;;;7.10;0.25;;;;;;;15.78;51.72;100810.00;4935483;29;19915;-80
2022/09/20 04:37:50;;;;;;;;;;;;;;;15.73;51.57;100819.28;4920740;29;20051;-79
2022/09/20 04:40:51;;;;;;;7.50;0.35;;;;;;;15.54;52.82;100818.28;4922360;29;20375;-80
2022/09/20 04:44:07;;;;;;;1.70;0.73;;;;;;;15.91;50.70;100824.44;4923583;29;20051;-80
2022/09/20 04:47:41;;;;;;;6.97;1.23;;;;;;;15.86;51.77;100817.28;4914628;29;20051;-80
2022/09/20 04:50:31;;;;;;;4.18;0.40;;;;;;;15.93;50.69;100825.72;4912088;29;20055;-80
2022/09/20 04:53:29;;;;;;;4.25;0.77;;;;;;;15.85;52.14;100826.63;4953916;28;20075;-80
2022/09/20 04:56:42;;;;;;;4.90;1.10;;;;;;;15.72;52.34;100833.31;4937263;29;20078;-80
2022/09/20 05:00:12;;;;;;;4.88;2.08;;;;;;;15.96;51.60;100846.16;4920868;29;20039;-80
2022/09/20 05:03:22;;;;;;;9.50;1.33;;;;;;;15.48;52.48;100850.59;4918737;29;20427;-82
2022/09/20 05:06:23;;;;;;;5.63;1.00;;;;;;;15.17;54.85;100853.13;4923114;29;20047;-84
2022/09/20 05:09:21;;;;;;;10.00;0.88;;;;;;;15.03;55.20;100852.66;4922310;29;20055;-84
2022/09/20 05:12:34;;;;;;;6.68;0.88;;;;;;;15.23;54.58;100858.03;4927686;29;20059;-83
2022/09/20 05:15:29;;;;;;;55.55;4.55;;;;;;;15.24;54.00;100859.59;4922290;29;20404;-85
2022/09/20 05:18:40;;;;;;;11.50;1.00;;;;;;;15.31;53.66;100865.31;4925016;29;20071;-85
2022/09/20 05:21:55;;;;;;;15.35;1.90;;;;;;;15.38;53.01;100862.81;4922941;29;20055;-83
2022/09/20 05:25:06;;;;;;;46.65;2.45;;;;;;;15.57;52.52;100873.22;4928416;29;20063;-83
2022/09/20 05:28:12;;;;;;;4.53;1.00;;;;;;;15.47;52.83;100875.59;4922672;29;20055;-83
2022/09/20 05:31:05;;;;;;;13.80;1.20;;;;;;;15.54;53.01;100878.59;4928287;29;20047;-84
2022/09/20 05:34:08;;;;;;;39.85;2.25;;;;;;;15.43;52.88;100880.97;4922800;29;20051;-83
2022/09/20 05:37:27;;;;;;;17.95;1.50;;;;;;;15.02;55.06;100892.13;4954605;28;20047;-83
2022/09/20 05:40:30;;;;;;;11.65;1.38;;;;;;;14.69;56.35;100897.63;4927745;29;20055;-84
2022/09/20 05:43:28;;;;;;;6.85;1.35;;;;;;;14.42;57.25;100897.13;4922171;29;20055;-83
2022/09/20 05:46:48;;;;;;;3.67;1.10;;;;;;;14.33;57.08;100896.34;4922896;29;20066;-83
2022/09/20 05:50:07;;;;;;;9.30;1.70;;;;;;;14.67;56.43;100913.63;4954849;28;20058;-83
2022/09/20 05:52:58;;;;;;;6.40;1.95;;;;;;;14.90;55.78;100912.06;4927720;29;20059;-81
2022/09/20 05:56:04;;;;;;;4.13;1.17;;;;;;;14.99;57.12;100921.78;4922279;29;20411;-81
2022/09/20 05:59:04;;;;;;;;;;;;;;;15.26;54.71;100919.53;4922579;29;20051;-82
2022/09/20 06:02:08;;;;;;;13.80;1.70;;;;;;;15.51;53.57;100917.59;4922735;29;19919;-81
2022/09/20 06:05:13;;;;;;;8.20;1.30;;;;;;;15.66;53.09;100922.41;4955098;28;20081;-81
2022/09/20 06:08:07;;;;;;;2.95;0.65;;;;;;;15.37;54.21;100923.44;4921494;29;20055;-81
2022/09/20 06:11:02;;;;;;;4.05;1.13;;;;;;;15.71;53.08;100924.94;4922012;29;20059;-82
2022/09/20 06:13:59;;;;;;;3.67;0.80;;;;;;;16.04;52.57;100928.31;4922717;29;20043;-82
2022/09/20 06:16:57;;;;;;;4.55;1.10;;;;;;;16.31;52.66;100926.72;4926946;29;20058;-82
2022/09/20 06:19:54;;;;;;;1.95;0.98;;;;;;;16.55;51.63;100929.41;4951930;28;20055;-81
2022/09/20 06:22:43;;;;;;;7.45;1.17;;;;;;;16.79;50.85;100934.00;4922213;29;20055;-82
2022/09/20 06:25:41;;;;;;;3.85;0.85;;;;;;;16.96;50.32;100930.13;4922195;29;20063;-82
2022/09/20 06:28:33;;;;;;;2.50;0.80;;;;;;;17.07;48.87;100929.25;4950014;28;20047;-82
2022/09/20 06:31:19;;;;;;;5.88;1.30;;;;;;;17.08;49.01;100928.09;4922952;29;20419;-81
2022/09/20 06:34:07;;;;;;;12.65;0.98;;;;;;;17.35;49.01;100925.63;4922470;29;20055;-82
2022/09/20 06:43:40;;;;;;;5.40;2.00;;;;;;;18.06;47.73;100928.09;4920003;29;20043;-82
2022/09/20 06:46:30;;;;;;;6.07;1.00;;;;;;;18.02;47.63;100926.41;4914291;29;20047;-82
2022/09/20 06:49:15;;;;;;;2.33;1.00;;;;;;;18.28;49.11;100929.34;4931076;29;20059;-82
2022/09/20 06:51:59;;;;;;;2.22;1.20;;;;;;;18.46;48.11;100930.50;4920886;29;20051;-82
2022/09/20 06:54:45;;;;;;;;;;;;;;;18.63;46.23;100927.34;4922270;29;20519;-81
2022/09/20 06:57:37;;;;;;;3.20;0.90;;;;;;;18.82;43.33;100920.97;4916326;29;19915;-83
2022/09/20 07:00:23;;;;;;;3.90;0.68;;;;;;;18.98;47.23;100923.63;4934790;29;20083;-84
2022/09/20 07:03:08;;;;;;;4.65;0.90;;;;;;;19.09;43.48;100927.38;4917414;29;20059;-83
2022/09/20 07:05:53;;;;;;;2.80;0.85;;;;;;;19.20;44.96;100925.56;4922221;29;20068;-83
2022/09/20 07:08:38;;;;;;;;;;;;;;;19.29;44.67;100937.19;4917078;29;20070;-83
2022/09/20 07:11:22;;;;;;;3.13;0.95;;;;;;;19.33;43.77;100928.97;4954587;28;19915;-83
2022/09/20 07:14:07;;;;;;;3.13;0.80;;;;;;;19.56;44.05;100933.31;4926848;29;20044;-83
2022/09/20 07:16:53;;;;;;;2.15;0.57;;;;;;;19.74;44.72;100930.03;4911403;29;20412;-83
2022/09/20 07:19:38;;;;;;;6.88;0.50;;;;;;;19.91;41.02;100933.03;4937539;29;20428;-83
2022/09/20 07:22:23;;;;;;;13.23;1.33;;;;;;;20.00;42.17;100933.56;4915219;29;20048;-83
2022/09/20 07:25:08;;;;;;;1.38;0.57;;;;;;;20.12;37.99;100934.50;4921068;29;20059;-83
2022/09/20 07:27:53;;;;;;;8.63;1.92;;;;;;;20.18;38.80;100930.22;4915724;29;20055;-86
2022/09/20 07:30:38;;;;;;;3.13;0.43;;;;;;;20.31;39.17;100935.19;4943944;29;20515;-82
2022/09/20 07:33:23;;;;;;;2.95;0.65;;;;;;;20.44;42.23;100944.81;4931669;29;20058;-83
2022/09/20 07:36:11;;;;;;;1.92;0.40;;;;;;;20.43;36.79;100942.41;4921422;29;20436;-82
2022/09/20 07:38:56;;;;;;;2.67;0.30;;;;;;;20.54;39.17;100957.16;4920563;29;20063;-83
2022/09/20 07:41:40;;;;;;;;;;;;;;;20.62;38.17;100953.31;4923931;29;20063;-84
2022/09/20 07:44:26;;;;;;;1.13;0.40;;;;;;;20.71;35.84;100951.06;4952458;28;19919;-83
2022/09/20 07:47:13;;;;;;;1.90;0.88;;;;;;;20.85;37.48;100953.16;4951262;29;20067;-84
2022/09/20 07:49:57;;;;;;;0.30;0.20;;;;;;;20.89;36.89;100959.53;4912634;29;20415;-83
2022/09/20 07:52:42;;;;;;;3.08;0.50;;;;;;;20.93;39.52;100955.63;4918392;29;20503;-82
2022/09/20 07:55:27;;;;;;;2.67;0.40;;;;;;;20.92;36.37;100950.50;4927868;29;20052;-83
2022/09/20 07:58:12;;;;;;;1.85;0.70;;;;;;;20.98;39.47;100962.00;4920585;29;20054;-83
2022/09/20 08:01:02;;;;;;;0.63;0.30;;;;;;;21.09;38.28;100963.69;4921055;29;20055;-82
2022/09/20 08:03:47;;;;;;;2.78;0.28;;;;;;;21.17;38.00;100959.84;4925553;29;20067;-83
2022/09/20 08:06:36;;;;;;;0.30;0.20;;;;;;;21.17;38.97;100965.38;4920666;29;20047;-83
2022/09/20 08:09:21;;;;;;;4.10;1.20;;;;;;;21.23;38.08;100963.06;4942493;28;20055;-83
2022/09/20 08:12:07;;;;;;;1.33;0.22;;;;;;;21.26;39.28;100967.84;4949256;28;20051;-83
2022/09/20 08:14:52;;;;;;;1.83;0.75;;;;;;;21.24;38.19;100965.44;4927500;29;20075;-83
2022/09/20 08:17:39;;;;;;;;;;;;;;;21.43;39.79;100972.75;4927326;29;20067;-82
2022/09/20 08:20:23;;;;;;;1.63;0.38;;;;;;;21.41;39.93;100977.06;4924158;29;19915;-83
2022/09/20 08:23:08;;;;;;;2.15;0.40;;;;;;;21.44;41.06;100973.50;4924432;29;20055;-83
2022/09/20 08:25:55;;;;;;;;;;;;;;;21.50;39.58;100971.97;4926837;29;20051;-84
2022/09/20 08:28:41;;;;;;;4.28;0.60;;;;;;;21.54;37.75;100975.56;4923761;29;19915;-82
2022/09/20 08:31:30;;;;;;;2.22;0.40;;;;;;;21.60;39.98;100980.38;4924118;29;20055;-84
2022/09/20 08:34:15;;;;;;;4.22;0.52;;;;;;;21.55;38.35;100983.50;4928415;29;20047;-83
2022/09/20 08:37:00;;;;;;;2.55;0.40;;;;;;;21.71;39.24;100972.16;4927113;29;20059;-82
2022/09/20 08:39:45;;;;;;;0.68;0.30;;;;;;;21.72;38.90;100979.28;4924664;29;20051;-84
2022/09/20 08:42:35;;;;;;;2.33;0.30;;;;;;;22.06;37.28;100971.63;4923659;29;20055;-84
2022/09/20 08:45:24;;;;;;;2.25;0.30;;;;;;;22.06;38.11;100977.16;4923552;29;20051;-85
2022/09/20 08:48:15;;;;;;;2.47;0.52;;;;;;;21.97;38.16;100979.47;4937645;29;20059;-84
2022/09/20 08:51:02;;;;;;;4.03;0.45;;;;;;;22.15;38.16;100970.09;4928634;29;20043;-84
2022/09/20 08:53:54;;;;;;;0.73;0.20;;;;;;;22.14;39.73;100968.53;4942154;29;20059;-83
2022/09/20 08:56:39;;;;;;;1.27;0.35;;;;;;;22.09;39.26;100973.63;4923317;29;20542;-84
2022/09/20 08:59:24;;;;;;;2.35;0.30;;;;;;;22.10;38.47;100967.69;4927412;29;20059;-84
2022/09/20 09:02:18;;;;;;;0.95;0.40;;;;;;;22.31;38.50;100960.66;4928812;29;20058;-82
2022/09/20 09:05:23;;;;;;;0.50;0.20;;;;;;;22.36;36.31;100963.88;4923571;29;20051;-83
2022/09/20 09:08:15;;;;;;;2.55;0.80;;;;;;;22.59;37.81;100966.34;4922966;29;20051;-84
2022/09/20 09:11:07;;;;;;;4.65;0.30;;;;;;;22.32;38.64;100962.25;4928059;29;20067;-83
2022/09/20 09:14:00;;;;;;;4.05;0.47;;;;;;;22.02;37.79;100965.28;4941544;29;20060;-83
2022/09/20 09:16:45;;;;;;;11.27;1.30;;;;;;;21.97;38.15;100957.31;4922999;29;20051;-83
2022/09/20 09:19:43;;;;;;;2.85;0.52;;;;;;;21.63;39.10;100965.00;4922073;29;20070;-83
2022/09/20 09:22:39;;;;;;;1.27;0.30;;;;;;;21.74;38.18;100961.09;4922905;29;20047;-83
2022/09/20 09:25:33;;;;;;;5.93;1.17;;;;;;;22.10;38.78;100959.38;4922367;29;20067;-83
2022/09/20 09:28:23;;;;;;;2.10;0.15;;;;;;;22.51;38.19;100957.19;4922366;29;20063;-83
2022/09/20 09:31:25;;;;;;;1.23;0.38;;;;;;;22.55;36.65;100943.38;5011177;23;20063;-80
2022/09/20 09:34:30;;;;;;;0.98;0.22;;;;;;;22.54;37.53;100939.00;4991071;28;20054;-79
2022/09/20 09:37:29;;;;;;;0.40;0.40;;;;;;;22.78;35.81;100934.75;4993847;28;20049;-78
2022/09/20 09:40:17;;;;;;;6.10;0.40;;;;;;;22.50;36.15;100947.28;4976099;28;20050;-78
2022/09/20 09:43:03;;;;;;;1.23;0.35;;;;;;;22.48;37.79;100935.03;4975863;28;20046;-79
2022/09/20 09:45:48;;;;;;;1.65;0.30;;;;;;;22.51;36.29;100939.75;4974170;28;20058;-80
2022/09/20 09:48:33;;;;;;;14.77;1.48;;;;;;;22.50;37.75;100936.19;4977363;28;20049;-77
2022/09/20 09:51:19;;;;;;;3.33;0.95;;;;;;;22.33;37.52;100931.41;4977054;28;20066;-80
2022/09/20 09:54:06;;;;;;;0.65;0.20;;;;;;;22.35;36.79;100928.25;4983072;28;20050;-78
2022/09/20 09:57:19;;;;;;;3.97;1.15;;;;;;;22.21;36.70;100933.72;5008096;28;20054;-78
2022/09/20 10:00:17;;;;;;;6.63;0.38;;;;;;;22.62;36.90;100929.50;4993562;28;20050;-80
2022/09/20 10:03:17;;;;;;;1.00;0.50;;;;;;;23.00;36.20;100931.63;4997337;28;20057;-78
2022/09/20 10:06:21;;;;;;;1.38;0.40;;;;;;;23.03;35.87;100919.72;4994956;28;20524;-80
2022/09/20 10:09:35;;;;;;;18.52;1.00;;;;;;;22.46;37.11;100921.53;4997240;28;20073;-79
2022/09/20 10:12:43;;;;;;;2.38;0.25;;;;;;;22.89;36.82;100924.47;4993975;28;20182;-78
2022/09/20 10:15:40;;;;;;;6.28;0.90;;;;;;;22.86;36.06;100917.72;4997005;28;20045;-78
2022/09/20 10:18:42;;;;;;;5.70;0.40;;;;;;;22.98;35.95;100911.78;4994245;28;20525;-78
2022/09/20 10:21:42;;;;;;;7.15;0.40;;;;;;;22.46;36.69;100915.19;4992893;28;20053;-78
2022/09/20 10:25:09;;;;;;;3.65;0.73;;;;;;;22.24;37.01;100900.50;4995037;28;20050;-79
2022/09/20 10:28:10;;;;;;;2.15;0.35;;;;;;;22.68;35.32;100908.53;4993048;28;20049;-77
2022/09/20 10:31:04;;;;;;;1.35;0.45;;;;;;;22.51;35.23;100903.72;4993315;28;20520;-78
2022/09/20 10:34:18;;;;;;;8.88;0.50;;;;;;;22.87;35.53;100902.66;4992147;28;20069;-79
2022/09/20 10:37:13;;;;;;;2.72;0.47;;;;;;;22.63;36.47;100897.03;4992931;28;20042;-79
2022/09/20 10:43:47;;;;;;;2.58;0.43;;;;;;;23.39;35.77;100897.53;4994127;28;20406;-79
2022/09/20 10:47:06;;;;;;;6.60;0.32;;;;;;;23.36;35.26;100903.88;4996993;28;20049;-80
2022/09/20 10:49:57;;;;;;;6.13;0.55;;;;;;;23.54;34.37;100901.13;4993376;28;20189;-81
2022/09/20 10:52:51;;;;;;;1.67;0.68;;;;;;;23.05;34.76;100882.47;4997447;28;20053;-80
2022/09/20 10:55:46;;;;;;;3.45;0.38;;;;;;;23.34;36.73;100890.41;4985171;28;20513;-79
2022/09/20 10:58:46;;;;;;;;;;;;;;;23.56;35.42;100891.22;4984651;28;20520;-81
2022/09/20 11:01:45;;;;;;;1.27;0.60;;;;;;;23.75;35.10;100889.97;4986934;28;19926;-83
2022/09/20 11:04:51;;;;;;;2.53;0.25;;;;;;;23.86;34.83;100890.75;4986774;28;20053;-80
2022/09/20 11:07:42;;;;;;;2.10;0.57;;;;;;;23.72;36.07;100877.66;4992219;28;20053;-77
2022/09/20 11:10:35;;;;;;;2.78;0.38;;;;;;;23.44;34.50;100884.03;4985597;28;20065;-76
2022/09/20 11:13:31;;;;;;;21.90;1.63;;;;;;;23.53;34.98;100875.34;4989572;28;20045;-76
2022/09/20 11:16:22;;;;;;;6.88;0.88;;;;;;;23.63;34.84;100879.28;4987771;28;20062;-77
2022/09/20 11:19:25;;;;;;;0.65;0.40;;;;;;;23.74;36.21;100885.59;4984505;28;20046;-76
2022/09/20 11:22:21;;;;;;;3.28;0.60;;;;;;;23.76;35.47;100883.22;4990965;28;20049;-77
2022/09/20 11:25:14;;;;;;;2.95;0.70;;;;;;;23.75;34.74;100881.63;4987831;28;20045;-78
2022/09/20 11:28:10;;;;;;;2.42;0.40;;;;;;;23.80;35.51;100878.44;4992732;28;20045;-78
2022/09/20 11:31:17;;;;;;;9.80;0.45;;;;;;;23.86;35.86;100876.84;4982936;28;20054;-77
2022/09/20 11:34:15;;;;;;;2.85;0.40;;;;;;;23.83;35.23;100884.00;4987718;28;20061;-75
2022/09/20 11:37:02;;;;;;;5.28;0.50;;;;;;;23.89;35.05;100876.03;4999082;28;20053;-76
2022/09/20 11:39:54;;;;;;;0.45;0.30;;;;;;;23.98;35.60;100872.81;4991517;28;20065;-77
2022/09/20 11:42:40;;;;;;;2.58;0.28;;;;;;;23.95;34.87;100868.88;4985427;28;20134;-76
2022/09/20 11:45:27;;;;;;;3.75;0.32;;;;;;;24.19;33.77;100873.56;4995515;28;20042;-77
2022/09/20 11:48:32;;;;;;;1.70;0.38;;;;;;;24.06;35.53;100866.06;4983098;28;20069;-78
2022/09/20 11:51:35;;;;;;;;;;;;;;;24.00;34.69;100862.91;4989483;28;20057;-78
2022/09/20 11:54:57;;;;;;;2.22;0.50;;;;;;;23.77;35.15;100862.59;4999150;28;19913;-80
2022/09/20 11:57:42;;;;;;;2.70;0.30;;;;;;;23.57;35.14;100858.69;5001772;28;20053;-77
2022/09/20 12:00:29;;;;;;;2.85;0.47;;;;;;;23.72;35.43;100855.44;4997456;28;20053;-75
2022/09/20 12:03:34;;;;;;;1.83;0.50;;;;;;;23.84;35.13;100846.69;4990348;28;20054;-78
2022/09/20 12:06:32;;;;;;;4.00;0.80;;;;;;;23.90;35.34;100849.84;4992078;28;20067;-77
2022/09/20 12:09:35;;;;;;;2.25;0.50;;;;;;;23.63;35.89;100841.19;4989643;28;20046;-77
2022/09/20 12:12:32;;;;;;;2.05;0.40;;;;;;;23.93;34.98;100849.03;4989424;28;20041;-79
2022/09/20 12:15:24;;;;;;;3.22;0.50;;;;;;;24.08;34.83;100838.66;4994278;28;20053;-77
2022/09/20 12:18:32;;;;;;;3.28;0.45;;;;;;;24.12;34.37;100836.66;4994171;28;20064;-77
2022/09/20 12:21:19;;;;;;;14.32;2.22;;;;;;;24.03;34.97;100836.28;4998947;28;20061;-77
2022/09/20 12:24:18;;;;;;;179.55;34.55;;;;;;;23.78;36.11;100825.28;4998985;28;20052;-77
2022/09/20 12:27:28;;;;;;;42.95;8.93;;;;;;;23.77;36.31;100824.47;4985173;28;20043;-77
2022/09/20 12:30:21;;;;;;;7.55;1.58;;;;;;;24.13;34.50;100822.34;4976635;28;20050;-77
2022/09/20 12:33:19;;;;;;;26.30;4.65;;;;;;;24.09;34.39;100815.22;4982307;28;20131;-78
2022/09/20 12:36:15;;;;;;;13.52;2.65;;;;;;;24.36;34.56;100816.31;4978585;28;20525;-77
2022/09/20 12:39:12;;;;;;;3.65;0.57;;;;;;;24.16;34.27;100815.19;4976776;28;20073;-77
2022/09/20 12:41:58;;;;;;;3.33;0.47;;;;;;;24.00;34.43;100815.66;4978923;28;20045;-77
2022/09/20 12:45:06;;;;;;;20.40;3.30;;;;;;;23.96;35.70;100814.13;4976593;28;20054;-77
2022/09/20 12:47:53;;;;;;;5.90;0.88;;;;;;;23.98;34.52;100806.94;4976758;28;20050;-77
2022/09/20 12:53:42;;;;;;;1.92;0.45;;;;;;;23.92;35.12;100802.22;4981568;28;20053;-77
2022/09/20 12:56:27;;;;;;;2.38;0.65;;;;;;;24.10;35.08;100800.94;4979091;28;20049;-78
2022/09/20 12:59:26;;;;;;;6.25;0.50;;;;;;;24.14;34.97;100800.91;4976464;28;20049;-77
2022/09/20 13:02:55;;;;;;;2.58;0.50;;;;;;;24.17;35.19;100802.94;4975114;28;20054;-74
2022/09/20 13:05:44;;;;;;;2.47;0.20;;;;;;;24.29;35.46;100799.66;4975442;28;20069;-77
2022/09/20 13:08:52;;;;;;;4.78;0.73;;;;;;;24.52;34.44;100793.56;4975761;28;20062;-78
2022/09/20 13:11:51;;;;;;;3.20;0.85;;;;;;;24.76;33.73;100797.34;4977490;28;20050;-77
2022/09/20 13:14:39;;;;;;;2.10;0.40;;;;;;;24.39;34.23;100789.66;4980293;28;20050;-77
2022/09/20 13:17:29;;;;;;;2.33;0.40;;;;;;;24.57;33.95;100787.56;4976859;28;20614;-77
2022/09/20 13:20:23;;;;;;;3.15;0.32;;;;;;;24.56;34.18;100784.00;4976184;28;20414;-77
2022/09/20 13:23:17;;;;;;;2.42;0.40;;;;;;;24.72;33.44;100783.47;4975200;28;20045;-77
2022/09/20 13:26:08;;;;;;;2.30;0.40;;;;;;;24.91;33.03;100777.38;4977330;28;20059;-77
2022/09/20 13:28:58;;;;;;;4.60;0.47;;;;;;;24.53;34.01;100779.22;4975060;28;20053;-79
2022/09/20 13:31:42;;;;;;;1.90;0.40;;;;;;;24.71;33.73;100774.34;4978785;28;20410;-77
2022/09/20 13:34:27;;;;;;;2.50;0.40;;;;;;;24.65;33.56;100767.63;4976375;28;20045;-77
2022/09/20 13:37:22;;;;;;;0.45;0.30;;;;;;;24.39;34.83;100759.88;4976569;28;20065;-79
2022/09/20 13:40:16;;;;;;;2.50;0.40;;;;;;;24.43;34.37;100762.66;4978385;28;20045;-78
2022/09/20 13:43:05;;;;;;;4.78;0.68;;;;;;;24.66;33.90;100766.44;4976233;28;20046;-77
2022/09/20 13:45:58;;;;;;;1.73;0.25;;;;;;;24.51;34.09;100750.28;4980239;28;20046;-77
2022/09/20 13:48:47;;;;;;;1.15;0.73;;;;;;;24.52;33.75;100757.41;4977835;28;20053;-79
2022/09/20 13:51:33;;;;;;;4.25;0.40;;;;;;;24.64;34.56;100759.69;4977132;28;20045;-76
2022/09/20 13:54:27;;;;;;;3.70;0.65;;;;;;;24.66;33.41;100752.53;5008940;28;20049;-79
2022/09/20 13:57:20;;;;;;;5.95;1.50;;;;;;;24.62;34.00;100746.22;4993820;28;20045;-77